Time;durP1;ratioP1;P1;durP2;ratioP2;P2;SDS_P1;SDS_P2;PMS_P1;PMS_P2;Temp;Humidity;BMP_temperature;BMP_pressure;BME280_temperature;BME280_humidity;BME280_pressure;Samples;Min_cycle;Max_cycle;Signal;HPM_P1;HPM_P2
2023/09/17 00:01:05;;;;;;;36.60;33.00;;;14.20;90.00;;;;;;5045351;28;20287;-68
2023/09/17 00:03:32;;;;;;;32.27;29.23;;;14.20;90.00;;;;;;5041719;28;20342;-68
2023/09/17 00:05:58;;;;;;;36.10;32.67;;;14.20;90.10;;;;;;5050563;28;21589;-68
2023/09/17 00:08:24;;;;;;;36.33;32.83;;;14.20;90.10;;;;;;5032600;28;20283;-68
2023/09/17 00:10:50;;;;;;;33.20;29.83;;;14.20;90.30;;;;;;5050727;28;20301;-68
2023/09/17 00:13:16;;;;;;;35.33;31.70;;;14.10;90.30;;;;;;5050953;28;20037;-68
2023/09/17 00:15:42;;;;;;;35.03;31.67;;;14.10;90.30;;;;;;5047257;28;20487;-68
2023/09/17 00:18:07;;;;;;;34.53;31.20;;;14.10;90.80;;;;;;5046912;28;20295;-68
2023/09/17 00:20:33;;;;;;;33.63;30.40;;;14.10;90.60;;;;;;5046308;28;20077;-68
2023/09/17 00:23:00;;;;;;;33.60;30.60;;;14.10;90.60;;;;;;5049616;28;20029;-68
2023/09/17 00:25:26;;;;;;;30.17;27.27;;;14.10;90.60;;;;;;5048524;28;20043;-68
2023/09/17 00:27:52;;;;;;;33.87;30.37;;;14.10;90.80;;;;;;5050278;28;20279;-68
2023/09/17 00:30:18;;;;;;;35.70;32.57;;;14.10;90.80;;;;;;5050783;28;20186;-68
2023/09/17 00:32:44;;;;;;;31.00;27.93;;;14.10;91.00;;;;;;5050864;28;20370;-68
2023/09/17 00:35:12;;;;;;;32.87;29.57;;;14.10;91.00;;;;;;5049086;28;20045;-68
2023/09/17 00:37:38;;;;;;;33.17;29.93;;;14.10;91.10;;;;;;5050564;28;20397;-68
2023/09/17 00:40:11;;;;;;;34.27;31.07;;;14.10;91.10;;;;;;5049118;28;20296;-68
2023/09/17 00:42:45;;;;;;;35.97;32.50;;;14.20;91.10;;;;;;5047556;28;20119;-68
2023/09/17 00:45:12;;;;;;;36.10;32.67;;;14.20;91.10;;;;;;5047209;28;20284;-68
2023/09/17 00:47:38;;;;;;;37.23;33.70;;;14.20;91.30;;;;;;5048354;28;20396;-68
2023/09/17 00:50:04;;;;;;;37.13;33.47;;;14.20;91.00;;;;;;5046296;28;20290;-68
2023/09/17 00:52:33;;;;;;;39.27;35.73;;;14.20;90.90;;;;;;5048280;28;20291;-68
2023/09/17 00:54:59;;;;;;;46.43;42.43;;;14.30;91.20;;;;;;5047494;28;20735;-68
2023/09/17 00:57:25;;;;;;;41.07;37.20;;;14.30;91.00;;;;;;5046155;28;20361;-68
2023/09/17 00:59:51;;;;;;;42.97;39.20;;;14.30;91.30;;;;;;5049248;28;21478;-68
2023/09/17 01:02:20;;;;;;;41.17;37.30;;;14.30;91.20;;;;;;5037635;28;20292;-68
2023/09/17 01:04:49;;;;;;;39.90;36.20;;;14.40;91.40;;;;;;5048292;28;20499;-68
2023/09/17 01:07:19;;;;;;;38.93;35.10;;;14.30;91.40;;;;;;5042423;28;20752;-68
2023/09/17 01:09:46;;;;;;;38.93;35.33;;;14.40;91.40;;;;;;5043697;28;20284;-68
2023/09/17 01:12:12;;;;;;;40.33;36.73;;;14.40;91.60;;;;;;5049770;28;20291;-68
2023/09/17 01:14:38;;;;;;;34.83;31.53;;;14.40;91.60;;;;;;5046268;28;20357;-68
2023/09/17 01:17:10;;;;;;;38.90;35.50;;;14.40;91.90;;;;;;5047868;28;20290;-68
2023/09/17 01:19:37;;;;;;;37.50;34.00;;;14.40;91.80;;;;;;5046439;28;20291;-68
2023/09/17 01:22:23;;;;;;;37.40;33.83;;;14.50;92.10;;;;;;5073170;28;20874;-68
2023/09/17 01:25:28;;;;;;;34.55;31.23;;;14.50;92.40;;;;;;5049092;28;20280;-68
2023/09/17 01:27:55;;;;;;;35.60;32.20;;;14.60;93.00;;;;;;5071749;28;20049;-68
2023/09/17 01:30:21;;;;;;;40.00;35.87;;;14.60;93.20;;;;;;5047289;28;20640;-68
2023/09/17 01:32:47;;;;;;;33.43;30.17;;;14.70;93.10;;;;;;5052447;28;20320;-68
2023/09/17 01:35:15;;;;;;;35.23;31.63;;;14.80;93.10;;;;;;5048315;28;20056;-68
2023/09/17 01:38:00;;;;;;;39.90;36.37;;;14.80;93.00;;;;;;5048601;28;20048;-68
2023/09/17 01:40:27;;;;;;;40.15;36.35;;;14.80;93.20;;;;;;5046971;28;20687;-68
2023/09/17 01:42:54;;;;;;;38.03;34.40;;;14.80;93.40;;;;;;5048279;28;20037;-68
2023/09/17 01:45:21;;;;;;;44.80;40.77;;;14.80;93.50;;;;;;5044264;28;20288;-68
2023/09/17 01:47:48;;;;;;;39.83;36.17;;;14.90;93.60;;;;;;5050223;28;20822;-68
2023/09/17 01:50:16;;;;;;;37.30;33.80;;;14.90;94.10;;;;;;5032781;28;20287;-68
2023/09/17 01:52:45;;;;;;;37.53;33.93;;;14.90;94.10;;;;;;5049414;28;20295;-68
2023/09/17 01:55:12;;;;;;;43.17;39.30;;;14.90;94.20;;;;;;5041631;28;20296;-68
2023/09/17 01:57:39;;;;;;;38.33;34.47;;;14.90;94.00;;;;;;5045851;28;20280;-68
2023/09/17 02:00:14;;;;;;;38.90;35.03;;;14.90;94.40;;;;;;5046339;28;20288;-68
2023/09/17 02:02:43;;;;;;;38.58;34.33;;;14.90;94.40;;;;;;5070579;28;20365;-68
2023/09/17 02:05:09;;;;;;;37.93;34.03;;;14.90;94.50;;;;;;5045908;28;20140;-68
2023/09/17 02:07:36;;;;;;;40.50;36.57;;;15.00;94.70;;;;;;5047738;28;20466;-68
2023/09/17 02:10:02;;;;;;;39.53;35.60;;;15.00;94.70;;;;;;5047250;28;20044;-68
2023/09/17 02:12:28;;;;;;;43.40;39.23;;;15.10;94.80;;;;;;5077495;28;20295;-68
2023/09/17 02:14:54;;;;;;;39.00;34.93;;;15.10;94.80;;;;;;5040870;28;20303;-68
2023/09/17 02:17:20;;;;;;;39.87;35.70;;;15.20;95.20;;;;;;5046230;28;20696;-68
2023/09/17 02:19:45;;;;;;;41.87;37.67;;;15.20;95.00;;;;;;5047809;28;20079;-68
2023/09/17 02:22:11;;;;;;;40.33;36.07;;;15.30;95.10;;;;;;5047214;28;20083;-68
2023/09/17 02:24:37;;;;;;;43.47;39.27;;;15.30;95.30;;;;;;5026518;28;20073;-68
2023/09/17 02:27:03;;;;;;;39.83;36.13;;;15.30;95.40;;;;;;5047053;28;20041;-68
2023/09/17 02:29:29;;;;;;;42.10;38.10;;;15.40;95.40;;;;;;5047917;28;20040;-68
2023/09/17 02:31:54;;;;;;;45.03;40.43;;;15.40;95.50;;;;;;5047611;28;20435;-68
2023/09/17 02:34:20;;;;;;;45.37;41.03;;;15.40;95.40;;;;;;5045293;28;20099;-68
2023/09/17 02:36:46;;;;;;;43.90;39.70;;;15.50;95.40;;;;;;5059386;28;20477;-68
2023/09/17 02:39:13;;;;;;;43.07;39.07;;;15.50;95.50;;;;;;5045426;28;20139;-68
2023/09/17 02:41:39;;;;;;;47.33;42.77;;;15.50;95.60;;;;;;5047078;28;20388;-68
2023/09/17 02:44:06;;;;;;;48.37;43.90;;;15.60;95.50;;;;;;5047575;28;20272;-68
2023/09/17 02:46:33;;;;;;;47.57;42.87;;;15.60;95.70;;;;;;5045289;28;20755;-68
2023/09/17 02:48:59;;;;;;;43.30;39.33;;;15.60;95.80;;;;;;5070408;28;20809;-68
2023/09/17 02:51:27;;;;;;;39.70;35.70;;;15.70;96.10;;;;;;5046334;28;20311;-68
2023/09/17 02:53:52;;;;;;;40.60;36.73;;;15.70;95.90;;;;;;5041019;28;20045;-68
2023/09/17 02:56:18;;;;;;;48.27;44.00;;;15.70;95.90;;;;;;5042064;28;20825;-68
2023/09/17 02:58:46;;;;;;;38.93;35.27;;;15.80;96.20;;;;;;5041018;28;20044;-68
2023/09/17 03:01:17;;;;;;;45.53;41.23;;;15.80;96.10;;;;;;5046810;28;20786;-68
2023/09/17 03:03:47;;;;;;;37.83;34.13;;;15.90;96.20;;;;;;5026473;28;20288;-68
2023/09/17 03:06:13;;;;;;;44.80;40.60;;;15.90;96.30;;;;;;5042969;28;20283;-68
2023/09/17 03:08:43;;;;;;;42.33;38.40;;;15.90;96.50;;;;;;5042231;28;20284;-68
2023/09/17 03:11:13;;;;;;;43.70;39.67;;;15.90;96.40;;;;;;5047597;28;20295;-68
2023/09/17 03:13:44;;;;;;;43.67;39.47;;;16.00;96.40;;;;;;5044033;28;20298;-68
2023/09/17 03:16:12;;;;;;;51.00;46.23;;;16.00;96.40;;;;;;5073813;28;20294;-68
2023/09/17 03:18:39;;;;;;;46.33;42.27;;;16.00;96.50;;;;;;5044406;28;20299;-68
2023/09/17 03:21:08;;;;;;;43.20;39.27;;;16.00;96.50;;;;;;5045993;28;20613;-68
2023/09/17 03:23:33;;;;;;;41.77;37.77;;;16.00;96.40;;;;;;5047761;28;20287;-68
2023/09/17 03:26:03;;;;;;;41.03;37.03;;;16.00;96.70;;;;;;5023984;28;20344;-68
2023/09/17 03:28:32;;;;;;;41.30;37.50;;;16.00;96.60;;;;;;5041488;28;20041;-68
2023/09/17 03:30:59;;;;;;;47.23;42.77;;;16.10;96.60;;;;;;5030732;28;20295;-68
2023/09/17 03:33:24;;;;;;;43.43;39.43;;;16.10;96.70;;;;;;5047986;28;20296;-68
2023/09/17 03:35:51;;;;;;;42.90;38.97;;;16.10;96.70;;;;;;5046421;28;20299;-68
2023/09/17 03:38:17;;;;;;;45.67;41.47;;;16.10;96.70;;;;;;5047290;28;20048;-68
2023/09/17 03:40:43;;;;;;;42.33;38.33;;;16.10;96.70;;;;;;5063730;28;20315;-68
2023/09/17 03:43:09;;;;;;;47.03;42.53;;;16.10;96.70;;;;;;5050218;28;20279;-68
2023/09/17 03:45:35;;;;;;;45.47;41.27;;;16.10;96.80;;;;;;5046325;28;20600;-68
2023/09/17 03:48:01;;;;;;;46.03;41.93;;;16.10;96.70;;;;;;5048904;28;20128;-68
2023/09/17 03:50:30;;;;;;;46.60;42.47;;;16.10;96.80;;;;;;5051204;28;20480;-68
2023/09/17 03:52:58;;;;;;;45.77;41.87;;;16.10;96.90;;;;;;5033873;28;20040;-68
2023/09/17 03:55:24;;;;;;;44.50;40.57;;;16.20;97.30;;;;;;5049208;28;20341;-68
2023/09/17 03:57:50;;;;;;;46.87;43.00;;;16.20;97.30;;;;;;5048779;28;20659;-68
2023/09/17 04:00:18;;;;;;;43.70;39.97;;;16.20;97.00;;;;;;5051119;28;20392;-68
2023/09/17 04:02:44;;;;;;;43.70;39.97;;;16.20;97.20;;;;;;5050296;28;20287;-68
2023/09/17 04:05:12;;;;;;;44.33;40.30;;;16.20;97.20;;;;;;5048869;28;20291;-68
2023/09/17 04:07:40;;;;;;;45.47;41.47;;;16.20;97.00;;;;;;5049844;28;20283;-68
2023/09/17 04:10:06;;;;;;;41.33;37.67;;;16.30;97.10;;;;;;5032543;28;20291;-68
2023/09/17 04:12:33;;;;;;;43.77;39.97;;;16.30;97.00;;;;;;5049857;28;20813;-68
2023/09/17 04:14:59;;;;;;;39.30;35.43;;;16.30;97.00;;;;;;5048384;28;20794;-68
2023/09/17 04:17:24;;;;;;;54.80;50.30;;;16.30;97.00;;;;;;5050353;28;20287;-68
2023/09/17 04:19:51;;;;;;;55.63;51.13;;;16.30;97.50;;;;;;5042229;28;20476;-68
2023/09/17 04:22:17;;;;;;;48.47;44.30;;;16.30;97.50;;;;;;5050623;28;21205;-68
2023/09/17 04:24:44;;;;;;;46.40;42.47;;;16.40;97.40;;;;;;5047717;28;20291;-68
2023/09/17 04:27:11;;;;;;;46.30;42.40;;;16.40;97.10;;;;;;5050370;28;20082;-68
2023/09/17 04:29:37;;;;;;;43.73;39.80;;;16.30;97.40;;;;;;5040415;28;20986;-69
2023/09/17 04:32:03;;;;;;;41.70;38.03;;;16.30;97.20;;;;;;5050016;28;20306;-69
2023/09/17 04:34:29;;;;;;;44.00;40.20;;;16.30;97.00;;;;;;5047052;28;20287;-69
2023/09/17 04:36:58;;;;;;;50.97;46.83;;;16.30;97.00;;;;;;5075339;28;20283;-68
2023/09/17 04:39:27;;;;;;;43.93;39.83;;;16.30;97.00;;;;;;5046998;28;20049;-68
2023/09/17 04:41:53;;;;;;;42.43;38.67;;;16.30;97.00;;;;;;5050365;28;20374;-68
2023/09/17 04:44:19;;;;;;;52.33;47.87;;;16.30;97.10;;;;;;5034950;28;20287;-68
2023/09/17 04:46:45;;;;;;;50.50;46.17;;;16.30;96.80;;;;;;5029959;28;20283;-68
2023/09/17 04:49:11;;;;;;;115.30;107.47;;;16.30;96.90;;;;;;5066881;28;20045;-68
2023/09/17 04:51:37;;;;;;;120.53;112.60;;;16.30;97.00;;;;;;5031977;28;20059;-68
2023/09/17 04:54:03;;;;;;;91.43;85.17;;;16.30;97.00;;;;;;5029429;28;20041;-68
2023/09/17 04:56:30;;;;;;;111.93;104.70;;;16.30;97.00;;;;;;5030097;28;20307;-68
2023/09/17 04:59:00;;;;;;;109.10;101.87;;;16.30;96.90;;;;;;5049482;28;20291;-68
2023/09/17 05:01:27;;;;;;;55.90;51.43;;;16.30;97.00;;;;;;5050403;28;20647;-68
2023/09/17 05:03:53;;;;;;;118.67;111.00;;;16.30;97.10;;;;;;5047641;28;20590;-68
2023/09/17 05:06:19;;;;;;;104.43;97.67;;;16.30;97.10;;;;;;5076801;28;20283;-68
2023/09/17 05:08:45;;;;;;;115.60;108.23;;;16.30;97.00;;;;;;5045224;28;20790;-68
2023/09/17 05:11:10;;;;;;;103.60;96.77;;;16.30;97.00;;;;;;5049765;28;20037;-68
2023/09/17 05:13:36;;;;;;;109.27;102.03;;;16.30;97.10;;;;;;5046551;28;20036;-68
2023/09/17 05:16:03;;;;;;;118.47;110.63;;;16.30;97.10;;;;;;5048581;28;20099;-68
2023/09/17 05:18:29;;;;;;;106.87;99.53;;;16.40;96.90;;;;;;5047522;28;20107;-68
2023/09/17 05:20:55;;;;;;;88.80;82.70;;;16.30;96.80;;;;;;5048776;28;20311;-68
2023/09/17 05:23:21;;;;;;;106.60;99.50;;;16.30;96.70;;;;;;5050309;28;20318;-68
2023/09/17 05:25:47;;;;;;;127.73;119.40;;;16.30;96.70;;;;;;5049640;28;20116;-68
2023/09/17 05:28:13;;;;;;;97.57;91.03;;;16.30;96.70;;;;;;5049103;28;20382;-68
2023/09/17 05:30:39;;;;;;;109.50;102.37;;;16.40;96.60;;;;;;5030455;28;20033;-68
2023/09/17 05:33:05;;;;;;;116.00;108.67;;;16.30;96.50;;;;;;5048691;28;20063;-68
2023/09/17 05:35:31;;;;;;;104.03;97.00;;;16.40;96.40;;;;;;5046634;28;20049;-68
2023/09/17 05:37:57;;;;;;;96.43;89.87;;;16.40;96.30;;;;;;5046134;28;20694;-68
2023/09/17 05:40:23;;;;;;;109.13;101.93;;;16.40;96.10;;;;;;5047203;28;20299;-68
2023/09/17 05:42:49;;;;;;;94.57;88.03;;;16.40;96.00;;;;;;5045971;28;20048;-68
2023/09/17 05:45:14;;;;;;;140.43;131.67;;;16.40;95.90;;;;;;5049425;28;20492;-68
2023/09/17 05:47:41;;;;;;;99.23;93.07;;;16.40;95.80;;;;;;5049648;28;20306;-68
2023/09/17 05:50:08;;;;;;;75.87;70.77;;;16.40;95.70;;;;;;5046673;28;20405;-68
2023/09/17 05:52:34;;;;;;;107.47;100.33;;;16.40;95.60;;;;;;5048611;28;20382;-68
2023/09/17 05:55:00;;;;;;;108.80;101.87;;;16.40;95.60;;;;;;5026328;28;20878;-68
2023/09/17 05:57:26;;;;;;;112.97;105.50;;;16.40;95.40;;;;;;5044104;28;20140;-68
2023/09/17 05:59:52;;;;;;;111.70;104.40;;;16.40;95.40;;;;;;5040722;28;20283;-68
2023/09/17 06:02:18;;;;;;;112.63;105.43;;;16.50;95.30;;;;;;5044208;28;20029;-68
2023/09/17 06:04:47;;;;;;;95.20;88.70;;;16.50;95.40;;;;;;5048245;28;20152;-68
2023/09/17 06:07:14;;;;;;;105.63;99.07;;;16.50;95.20;;;;;;5049282;28;20120;-69
2023/09/17 06:09:40;;;;;;;110.70;103.63;;;16.50;95.20;;;;;;5044593;28;20369;-70
2023/09/17 06:12:06;;;;;;;119.30;111.80;;;16.60;94.90;;;;;;5044179;28;20867;-69
2023/09/17 06:14:32;;;;;;;119.00;111.60;;;16.60;94.80;;;;;;5037708;28;20375;-71
2023/09/17 06:16:57;;;;;;;114.97;107.37;;;16.70;94.70;;;;;;5047028;28;20045;-70
2023/09/17 06:19:23;;;;;;;125.07;117.30;;;16.70;94.40;;;;;;5047560;28;20133;-69
2023/09/17 06:21:49;;;;;;;109.03;102.20;;;16.80;94.40;;;;;;5045347;28;20043;-70
2023/09/17 06:24:16;;;;;;;128.13;119.97;;;16.80;94.20;;;;;;5049673;28;20116;-69
2023/09/17 06:26:41;;;;;;;120.83;113.03;;;16.80;94.10;;;;;;5043903;28;20049;-70
2023/09/17 06:29:07;;;;;;;135.93;127.47;;;16.80;93.90;;;;;;5045011;28;20310;-70
2023/09/17 06:31:33;;;;;;;132.97;124.53;;;16.90;93.80;;;;;;5043673;28;20048;-69
2023/09/17 06:33:59;;;;;;;142.57;133.47;;;16.90;93.90;;;;;;5046040;28;20103;-69
2023/09/17 06:36:24;;;;;;;128.07;119.80;;;16.90;93.80;;;;;;5041075;28;20516;-69
2023/09/17 06:38:50;;;;;;;126.50;118.17;;;16.90;93.80;;;;;;5032817;28;20132;-70
2023/09/17 06:41:16;;;;;;;141.17;132.33;;;17.00;93.50;;;;;;5040287;28;20048;-70
2023/09/17 06:43:42;;;;;;;129.27;121.27;;;17.00;93.40;;;;;;5041933;28;20048;-69
2023/09/17 06:46:07;;;;;;;143.10;133.77;;;17.00;93.20;;;;;;5042673;28;20509;-69
2023/09/17 06:48:33;;;;;;;128.73;120.47;;;17.00;93.00;;;;;;5041384;28;20122;-69
2023/09/17 06:50:59;;;;;;;108.90;101.80;;;17.00;93.10;;;;;;5042699;28;20072;-69
2023/09/17 06:53:25;;;;;;;143.77;134.77;;;17.00;93.00;;;;;;5025719;28;20040;-69
2023/09/17 06:55:50;;;;;;;129.30;121.27;;;17.10;93.00;;;;;;5044327;28;20500;-69
2023/09/17 06:58:16;;;;;;;136.80;128.33;;;17.10;93.10;;;;;;5044700;28;20033;-69
2023/09/17 07:00:47;;;;;;;134.70;126.33;;;17.10;93.00;;;;;;5043645;28;20084;-69
2023/09/17 07:03:13;;;;;;;160.43;150.47;;;17.10;93.00;;;;;;5045170;28;20041;-69
2023/09/17 07:05:40;;;;;;;150.13;140.80;;;17.10;92.70;;;;;;5041237;28;20722;-69
2023/09/17 07:08:06;;;;;;;126.00;118.33;;;17.10;92.80;;;;;;5044308;28;20291;-69
2023/09/17 07:10:32;;;;;;;142.40;133.67;;;17.20;92.80;;;;;;5042466;28;20378;-69
2023/09/17 07:12:58;;;;;;;129.63;121.47;;;17.20;93.10;;;;;;5044585;28;20041;-69
2023/09/17 07:15:25;;;;;;;128.33;120.33;;;17.20;92.90;;;;;;5042222;28;20302;-69
2023/09/17 07:17:52;;;;;;;131.03;122.77;;;17.20;92.80;;;;;;5047415;28;20025;-69
2023/09/17 07:20:19;;;;;;;115.67;108.13;;;17.20;92.70;;;;;;5045480;28;20314;-69
2023/09/17 07:22:46;;;;;;;113.97;106.80;;;17.20;92.70;;;;;;5019523;28;20300;-69
2023/09/17 07:25:12;;;;;;;128.27;120.27;;;17.20;92.70;;;;;;5067040;28;20329;-69
2023/09/17 07:27:38;;;;;;;135.60;127.23;;;17.30;92.70;;;;;;5039906;28;20279;-69
2023/09/17 07:30:05;;;;;;;129.70;121.27;;;17.30;92.50;;;;;;5033728;28;20051;-69
2023/09/17 07:32:31;;;;;;;135.17;126.70;;;17.30;92.50;;;;;;5040957;28;20296;-69
2023/09/17 07:34:57;;;;;;;136.73;127.87;;;17.30;92.40;;;;;;5039596;28;20311;-69
2023/09/17 07:37:23;;;;;;;122.70;114.93;;;17.30;92.50;;;;;;5038370;28;20363;-69
2023/09/17 07:39:56;;;;;;;134.07;125.63;;;17.30;92.40;;;;;;5042217;28;20131;-69
2023/09/17 07:42:22;;;;;;;131.10;122.70;;;17.30;92.30;;;;;;5039091;28;20029;-69
2023/09/17 07:44:48;;;;;;;142.40;133.73;;;17.30;92.60;;;;;;5053330;28;20304;-69
2023/09/17 07:47:14;;;;;;;150.63;141.23;;;17.30;92.90;;;;;;5040956;28;20314;-69
2023/09/17 07:49:40;;;;;;;119.80;112.03;;;17.30;92.80;;;;;;5037795;28;20037;-69
2023/09/17 07:52:06;;;;;;;143.73;134.57;;;17.30;93.10;;;;;;5040040;28;20037;-69
2023/09/17 07:54:42;;;;;;;139.93;131.00;;;17.30;93.10;;;;;;5034877;28;20107;-69
2023/09/17 07:57:12;;;;;;;137.17;128.17;;;17.30;93.30;;;;;;5034171;28;20284;-69
2023/09/17 07:59:38;;;;;;;128.80;120.27;;;17.30;93.40;;;;;;5060516;28;20783;-69
2023/09/17 08:02:04;;;;;;;132.47;124.10;;;17.30;93.40;;;;;;5064223;28;20286;-69
2023/09/17 08:04:30;;;;;;;134.23;125.37;;;17.30;93.60;;;;;;5038153;28;20045;-69
2023/09/17 08:06:57;;;;;;;139.70;130.67;;;17.30;93.90;;;;;;5041033;28;20566;-69
2023/09/17 08:09:23;;;;;;;134.33;125.90;;;17.30;93.80;;;;;;5032646;28;20041;-69
2023/09/17 08:11:49;;;;;;;140.60;131.57;;;17.30;93.90;;;;;;5044505;28;20635;-69
2023/09/17 08:14:15;;;;;;;137.13;128.47;;;17.30;94.00;;;;;;5041640;28;20833;-69
2023/09/17 08:16:40;;;;;;;137.87;128.93;;;17.30;94.10;;;;;;5050521;28;20303;-69
2023/09/17 08:19:06;;;;;;;144.20;135.10;;;17.30;94.30;;;;;;5042850;28;20033;-69
2023/09/17 08:21:33;;;;;;;128.77;120.50;;;17.30;94.40;;;;;;5039812;28;20069;-69
2023/09/17 08:23:59;;;;;;;133.73;125.20;;;17.30;94.70;;;;;;5041996;28;20041;-69
2023/09/17 08:26:28;;;;;;;132.93;124.30;;;17.30;94.50;;;;;;5029591;28;20280;-69
2023/09/17 08:29:00;;;;;;;109.17;101.80;;;17.30;94.80;;;;;;5045818;28;20293;-69
2023/09/17 08:31:27;;;;;;;111.50;104.00;;;17.30;95.00;;;;;;5028581;28;20294;-69
2023/09/17 08:33:53;;;;;;;111.83;104.40;;;17.20;95.00;;;;;;5042748;28;20356;-69
2023/09/17 08:36:23;;;;;;;111.53;103.93;;;17.20;95.10;;;;;;5040668;28;20878;-70
2023/09/17 08:38:50;;;;;;;114.77;107.03;;;17.20;95.20;;;;;;5074324;28;20378;-71
2023/09/17 08:41:19;;;;;;;119.73;111.43;;;17.10;95.80;;;;;;5044620;28;20279;-71
2023/09/17 08:43:52;;;;;;;122.17;113.93;;;17.10;96.00;;;;;;5042994;28;20294;-71
2023/09/17 08:46:22;;;;;;;125.07;116.60;;;17.00;96.20;;;;;;5032802;28;20307;-70
2023/09/17 08:48:48;;;;;;;135.50;126.63;;;17.00;96.20;;;;;;5032874;28;20284;-72
2023/09/17 08:51:17;;;;;;;126.57;118.10;;;16.90;96.60;;;;;;5044499;28;20966;-72
2023/09/17 08:53:56;;;;;;;109.43;102.07;;;16.90;96.90;;;;;;5041996;28;20423;-72
2023/09/17 08:56:22;;;;;;;92.47;85.77;;;16.90;97.10;;;;;;5042645;28;20865;-72
2023/09/17 08:58:52;;;;;;;102.10;94.93;;;16.90;97.80;;;;;;5038666;28;20948;-71
2023/09/17 09:01:23;;;;;;;115.90;107.80;;;16.90;98.00;;;;;;5043466;28;20291;-71
2023/09/17 09:03:51;;;;;;;92.80;85.77;;;16.90;98.30;;;;;;5042386;28;20633;-71
2023/09/17 09:06:18;;;;;;;103.00;95.60;;;16.90;98.40;;;;;;5034964;28;20288;-72
2023/09/17 09:08:45;;;;;;;138.50;129.17;;;16.90;98.60;;;;;;5038870;28;20732;-72
2023/09/17 09:11:11;;;;;;;133.57;124.57;;;16.90;98.60;;;;;;5040741;28;20377;-72
2023/09/17 09:13:38;;;;;;;105.50;97.93;;;16.90;99.00;;;;;;5036257;28;20289;-72
2023/09/17 09:16:04;;;;;;;113.53;105.57;;;16.90;99.20;;;;;;5060759;28;20318;-72
2023/09/17 09:18:29;;;;;;;120.77;112.47;;;16.90;99.30;;;;;;5042161;28;20303;-71
2023/09/17 09:20:55;;;;;;;108.57;100.70;;;16.90;99.40;;;;;;5044915;28;20279;-71
2023/09/17 09:23:22;;;;;;;128.00;119.27;;;16.90;99.40;;;;;;5040887;28;20037;-72
2023/09/17 09:25:48;;;;;;;128.70;119.80;;;16.90;99.80;;;;;;5030956;28;20044;-72
2023/09/17 09:28:14;;;;;;;126.13;117.30;;;16.90;99.90;;;;;;5049016;28;20287;-72
2023/09/17 09:30:42;;;;;;;115.27;107.13;;;16.80;99.90;;;;;;5045836;28;20041;-72
2023/09/17 09:33:07;;;;;;;105.23;97.63;;;16.80;99.90;;;;;;5060952;28;20052;-72
2023/09/17 09:35:33;;;;;;;120.70;112.53;;;16.80;99.90;;;;;;5050708;28;20671;-72
2023/09/17 09:38:01;;;;;;;124.67;115.87;;;16.70;99.90;;;;;;5049962;28;20044;-72
2023/09/17 09:40:28;;;;;;;119.83;111.53;;;16.70;99.90;;;;;;5048669;28;20450;-72
2023/09/17 09:42:54;;;;;;;124.93;116.53;;;16.60;99.90;;;;;;5044908;28;20287;-72
2023/09/17 09:45:20;;;;;;;112.17;104.70;;;16.60;99.90;;;;;;5073497;28;20370;-72
2023/09/17 09:47:48;;;;;;;109.90;102.40;;;16.60;99.90;;;;;;5048702;28;20114;-72
2023/09/17 09:50:42;;;;;;;55.00;50.73;;;16.50;99.90;;;;;;5042518;28;20042;-72
2023/09/17 09:53:08;;;;;;;94.57;88.63;;;16.40;99.90;;;;;;5043711;28;20283;-72
2023/09/17 09:55:33;;;;;;;104.03;97.70;;;16.30;99.90;;;;;;5043163;28;20350;-72
2023/09/17 09:58:00;;;;;;;115.50;108.17;;;16.30;99.90;;;;;;5043916;28;20041;-72
2023/09/17 10:00:26;;;;;;;93.67;87.17;;;16.30;99.90;;;;;;5037019;28;20358;-72
2023/09/17 10:02:53;;;;;;;108.93;102.00;;;16.30;99.90;;;;;;5045510;28;20782;-73
2023/09/17 10:05:36;;;;;;;109.77;102.93;;;16.30;99.90;;;;;;5041638;28;20315;-73
2023/09/17 10:08:05;;;;;;;122.83;114.93;;;16.30;99.90;;;;;;5052611;28;20284;-73
2023/09/17 10:10:31;;;;;;;100.83;93.93;;;16.40;99.90;;;;;;5043077;28;20295;-72
2023/09/17 10:12:59;;;;;;;104.53;97.33;;;16.50;99.90;;;;;;5045954;28;20988;-72
2023/09/17 10:15:25;;;;;;;93.53;87.27;;;16.60;99.90;;;;;;5047870;28;20873;-73
2023/09/17 10:17:51;;;;;;;96.20;89.73;;;16.60;99.90;;;;;;5050521;28;20304;-73
2023/09/17 10:20:18;;;;;;;103.27;96.47;;;16.70;99.90;;;;;;5038589;28;20033;-73
2023/09/17 10:22:46;;;;;;;99.23;92.77;;;16.70;99.90;;;;;;5044705;28;20287;-73
2023/09/17 10:25:15;;;;;;;95.50;89.03;;;16.80;99.90;;;;;;5043460;28;20287;-74
2023/09/17 10:27:43;;;;;;;97.27;91.23;;;16.80;99.90;;;;;;5048910;28;20304;-73
2023/09/17 10:30:12;;;;;;;102.17;95.87;;;16.80;99.90;;;;;;5045986;28;20341;-73
2023/09/17 10:32:38;;;;;;;105.33;98.93;;;16.80;99.90;;;;;;5044583;28;20651;-73
2023/09/17 10:35:06;;;;;;;83.83;78.73;;;16.80;99.90;;;;;;5039644;28;20737;-73
2023/09/17 10:37:32;;;;;;;82.57;77.37;;;16.80;99.90;;;;;;5028017;28;20384;-73
2023/09/17 10:40:00;;;;;;;96.03;90.23;;;16.80;99.90;;;;;;5045734;28;20299;-73
2023/09/17 10:42:27;;;;;;;83.10;78.13;;;16.80;99.90;;;;;;5036380;28;20288;-73
2023/09/17 10:44:57;;;;;;;74.93;70.40;;;16.90;99.90;;;;;;5039084;28;20353;-72
2023/09/17 10:47:24;;;;;;;85.27;80.27;;;16.90;99.90;;;;;;5043925;28;20342;-73
2023/09/17 10:49:51;;;;;;;79.77;75.20;;;17.00;99.90;;;;;;5038736;28;20677;-72
2023/09/17 10:52:17;;;;;;;92.90;87.70;;;17.10;99.90;;;;;;5041370;28;20283;-73
2023/09/17 10:54:44;;;;;;;98.33;92.87;;;17.30;99.90;;;;;;5044551;28;20327;-73
2023/09/17 10:57:30;;;;;;;91.93;86.80;;;17.40;99.90;;;;;;5025281;28;20292;-72
2023/09/17 10:59:58;;;;;;;98.63;92.97;;;17.50;99.70;;;;;;5055303;28;20283;-73
2023/09/17 11:02:26;;;;;;;97.73;92.30;;;17.60;99.30;;;;;;5041105;28;20803;-73
2023/09/17 11:04:52;;;;;;;110.90;104.63;;;17.70;99.00;;;;;;5037271;28;20750;-73
2023/09/17 11:07:19;;;;;;;123.33;116.13;;;17.80;98.80;;;;;;5041939;28;20343;-73
2023/09/17 11:09:45;;;;;;;120.30;113.30;;;17.90;98.60;;;;;;5012903;28;20276;-72
2023/09/17 11:12:12;;;;;;;106.40;100.10;;;17.90;98.50;;;;;;5042219;28;20290;-72
2023/09/17 11:14:37;;;;;;;113.80;107.20;;;17.90;98.50;;;;;;5023392;28;20771;-73
2023/09/17 11:17:04;;;;;;;110.10;103.60;;;17.90;98.20;;;;;;5041370;28;20291;-73
2023/09/17 11:19:30;;;;;;;114.80;108.17;;;18.00;98.30;;;;;;5044459;28;20036;-73
2023/09/17 11:22:02;;;;;;;123.33;116.13;;;18.00;98.00;;;;;;5027085;28;20290;-73
2023/09/17 11:24:28;;;;;;;133.63;126.23;;;18.00;98.50;;;;;;5041191;28;20092;-73
2023/09/17 11:26:57;;;;;;;121.97;114.90;;;18.00;98.70;;;;;;5047431;28;20673;-73
2023/09/17 11:29:36;;;;;;;131.50;123.93;;;17.90;98.40;;;;;;5016711;28;20092;-72
2023/09/17 11:32:04;;;;;;;112.70;106.27;;;18.00;98.20;;;;;;5040335;28;20386;-73
2023/09/17 11:34:31;;;;;;;120.57;114.03;;;18.00;98.30;;;;;;5029611;28;20307;-72
2023/09/17 11:36:57;;;;;;;130.30;123.00;;;18.10;98.30;;;;;;5043962;28;20385;-73
2023/09/17 11:39:24;;;;;;;149.63;141.27;;;18.20;98.40;;;;;;5024957;28;20303;-73
2023/09/17 11:42:00;;;;;;;153.93;145.03;;;18.30;98.00;;;;;;5051239;28;20271;-72
2023/09/17 11:44:26;;;;;;;150.30;141.93;;;18.40;98.00;;;;;;5055241;28;20299;-73
2023/09/17 11:46:51;;;;;;;141.37;133.47;;;18.50;97.50;;;;;;5055201;28;20288;-72
2023/09/17 11:49:18;;;;;;;143.13;135.03;;;18.60;97.70;;;;;;5039094;28;20078;-72
2023/09/17 11:51:45;;;;;;;135.87;128.33;;;18.70;97.10;;;;;;5045676;28;20049;-72
2023/09/17 11:54:43;;;;;;;74.63;70.23;;;18.70;96.90;;;;;;5042776;28;20288;-72
2023/09/17 11:57:09;;;;;;;69.63;65.43;;;18.80;96.90;;;;;;5042114;28;20064;-71
2023/09/17 11:59:38;;;;;;;68.67;64.57;;;18.90;96.90;;;;;;5043363;28;20284;-72
2023/09/17 12:02:05;;;;;;;67.33;63.40;;;18.90;96.40;;;;;;5048053;28;20044;-72
2023/09/17 12:04:35;;;;;;;82.13;77.47;;;18.90;95.80;;;;;;5044969;28;21056;-72
2023/09/17 12:07:07;;;;;;;117.80;111.50;;;19.00;95.90;;;;;;5047894;28;20283;-72
2023/09/17 12:10:05;;;;;;;134.80;127.40;;;19.00;95.80;;;;;;5051235;28;20309;-71
2023/09/17 12:12:36;;;;;;;170.53;160.97;;;19.10;94.90;;;;;;5048930;28;20049;-72
2023/09/17 12:15:09;;;;;;;157.20;148.20;;;19.10;95.20;;;;;;5043724;28;20712;-71
2023/09/17 12:17:36;;;;;;;135.57;127.73;;;19.00;95.20;;;;;;5031211;28;20512;-71
2023/09/17 12:23:26;;;;;;;135.35;127.47;;;18.90;95.00;;;;;;5027872;28;20052;-72